createdAt,value
2023-04-09T00:01:16.394Z,88.37
2023-04-09T00:03:44.247Z,88.41
2023-04-09T00:06:13.041Z,88.43
2023-04-09T00:08:41.304Z,88.45
2023-04-09T00:11:09.683Z,88.47
2023-04-09T00:13:39.698Z,88.50
2023-04-09T00:16:08.919Z,88.53
2023-04-09T00:18:36.969Z,88.59
2023-04-09T00:21:05.061Z,88.65
2023-04-09T00:23:36.700Z,88.74
2023-04-09T00:26:05.095Z,88.78
2023-04-09T00:28:33.004Z,88.81
2023-04-09T00:31:00.758Z,88.81
2023-04-09T00:33:28.553Z,88.76
2023-04-09T00:35:56.339Z,88.65
2023-04-09T00:38:24.645Z,88.55
2023-04-09T00:40:52.939Z,88.50
2023-04-09T00:43:20.790Z,88.52
2023-04-09T00:45:49.075Z,88.54
2023-04-09T00:48:17.675Z,88.56
2023-04-09T00:50:45.494Z,88.53
2023-04-09T00:53:17.950Z,88.48
2023-04-09T00:55:46.379Z,88.45
2023-04-09T00:58:14.706Z,88.46
2023-04-09T01:00:42.736Z,88.49
2023-04-09T01:03:10.734Z,88.54
2023-04-09T01:05:49.635Z,88.58
2023-04-09T01:08:53.499Z,88.63
2023-04-09T01:11:52.744Z,88.69
2023-04-09T01:14:42.151Z,88.71
2023-04-09T01:17:17.387Z,88.69
2023-04-09T01:20:02.370Z,88.68
2023-04-09T01:23:05.471Z,88.72
2023-04-09T01:26:13.747Z,88.80
2023-04-09T01:28:46.635Z,88.82
2023-04-09T01:31:18.664Z,88.82
2023-04-09T01:33:47.740Z,88.82
2023-04-09T01:36:16.624Z,88.82
2023-04-09T01:38:48.786Z,88.83
2023-04-09T01:41:21.633Z,88.82
2023-04-09T01:43:51.691Z,88.76
2023-04-09T01:46:22.152Z,88.66
2023-04-09T01:48:51.359Z,88.65
2023-04-09T01:51:19.704Z,88.74
2023-04-09T01:53:49.507Z,88.78
2023-04-09T01:56:17.777Z,88.82
2023-04-09T01:58:46.004Z,88.87
2023-04-09T02:01:24.399Z,88.84
2023-04-09T02:04:01.024Z,88.81
2023-04-09T02:06:39.555Z,88.83
2023-04-09T02:09:09.865Z,88.83
2023-04-09T02:11:42.462Z,88.86
2023-04-09T02:14:12.537Z,88.97
2023-04-09T02:16:40.805Z,89.09
2023-04-09T02:19:08.573Z,89.08
2023-04-09T02:21:36.567Z,89.06
2023-04-09T02:24:04.397Z,89.04
2023-04-09T02:26:32.322Z,89.06
2023-04-09T02:29:00.127Z,89.05
2023-04-09T02:31:27.886Z,89.06
2023-04-09T02:33:55.724Z,89.07
2023-04-09T02:36:23.646Z,89.07
2023-04-09T02:38:51.683Z,89.10
2023-04-09T02:41:19.659Z,89.09
2023-04-09T02:43:47.488Z,89.07
2023-04-09T02:46:15.449Z,89.02
2023-04-09T02:48:43.192Z,88.91
2023-04-09T02:51:11.014Z,88.79
2023-04-09T02:53:40.842Z,88.74
2023-04-09T02:56:08.687Z,88.75
2023-04-09T02:58:36.498Z,88.82
2023-04-09T03:01:04.920Z,88.86
2023-04-09T03:03:33.365Z,88.86
2023-04-09T03:06:01.209Z,88.86
2023-04-09T03:08:28.909Z,88.85
2023-04-09T03:10:56.723Z,88.82
2023-04-09T03:13:28.478Z,88.78
2023-04-09T03:15:56.660Z,88.75
2023-04-09T03:18:24.406Z,88.70
2023-04-09T03:20:52.234Z,88.72
2023-04-09T03:23:20.320Z,88.74
2023-04-09T03:25:48.174Z,88.79
2023-04-09T03:28:16.026Z,88.84
2023-04-09T03:30:44.178Z,88.79
2023-04-09T03:33:11.878Z,88.71
2023-04-09T03:35:39.782Z,88.70
2023-04-09T03:38:07.709Z,88.73
2023-04-09T03:40:36.633Z,88.77
2023-04-09T03:43:04.569Z,88.86
2023-04-09T03:45:32.726Z,88.89
2023-04-09T03:48:00.798Z,88.92
2023-04-09T03:50:28.832Z,88.95
2023-04-09T03:52:56.691Z,88.96
2023-04-09T03:55:24.416Z,88.95
2023-04-09T03:57:52.675Z,88.98
2023-04-09T04:00:20.815Z,88.99
2023-04-09T04:02:48.692Z,89.00
2023-04-09T04:05:16.792Z,89.02
2023-04-09T04:07:45.131Z,89.04
2023-04-09T04:10:12.994Z,89.02
2023-04-09T04:12:40.929Z,89.04
2023-04-09T04:15:09.837Z,89.06
2023-04-09T04:17:37.796Z,89.09
2023-04-09T04:20:06.357Z,89.12
2023-04-09T04:22:35.399Z,89.13
2023-04-09T04:25:04.711Z,89.08
2023-04-09T04:27:32.639Z,88.98
2023-04-09T04:30:02.256Z,88.95
2023-04-09T04:32:30.592Z,88.92
2023-04-09T04:34:58.371Z,88.93
2023-04-09T04:37:26.219Z,88.97
2023-04-09T04:39:54.216Z,88.97
2023-04-09T04:42:23.226Z,88.89
2023-04-09T04:44:51.253Z,88.88
2023-04-09T04:47:19.593Z,88.84
2023-04-09T04:49:47.638Z,88.83
2023-04-09T04:52:17.668Z,88.79
2023-04-09T04:54:45.715Z,88.79
2023-04-09T04:57:14.003Z,88.81
2023-04-09T04:59:41.990Z,88.88
2023-04-09T05:02:10.333Z,88.92
2023-04-09T05:04:38.543Z,88.93
2023-04-09T05:07:06.373Z,88.96
2023-04-09T05:09:34.967Z,89.01
2023-04-09T05:12:03.150Z,89.05
2023-04-09T05:14:31.663Z,89.11
2023-04-09T05:16:59.685Z,89.18
2023-04-09T05:19:27.455Z,89.23
2023-04-09T05:21:55.175Z,89.19
2023-04-09T05:24:22.865Z,89.18
2023-04-09T05:26:51.328Z,89.10
2023-04-09T05:29:19.069Z,88.92
2023-04-09T05:31:46.856Z,88.81
2023-04-09T05:34:14.707Z,88.67
2023-04-09T05:36:42.540Z,88.44
2023-04-09T05:39:11.106Z,88.33
2023-04-09T05:41:39.169Z,88.25
2023-04-09T05:44:06.932Z,88.20
2023-04-09T05:46:34.723Z,88.10
2023-04-09T05:49:02.638Z,87.98
2023-04-09T05:51:30.459Z,87.75
2023-04-09T05:53:59.489Z,87.46
2023-04-09T05:56:28.231Z,87.21
2023-04-09T05:58:56.148Z,86.94
2023-04-09T06:01:24.112Z,86.84
2023-04-09T06:03:54.062Z,86.75
2023-04-09T06:06:24.866Z,86.68
2023-04-09T06:08:52.887Z,86.58
2023-04-09T06:11:21.860Z,86.48
2023-04-09T06:13:50.347Z,86.32
2023-04-09T06:16:18.985Z,86.29
2023-04-09T06:18:49.776Z,86.32
2023-04-09T06:21:17.548Z,86.36
2023-04-09T06:23:45.331Z,86.33
2023-04-09T06:26:13.080Z,86.34
2023-04-09T06:28:41.448Z,86.30
2023-04-09T06:31:09.916Z,86.01
2023-04-09T06:33:37.630Z,86.09
2023-04-09T06:36:05.625Z,86.16
2023-04-09T06:38:33.526Z,86.05
2023-04-09T06:41:01.242Z,86.00
2023-04-09T06:43:29.554Z,85.91
2023-04-09T06:45:57.977Z,85.82
2023-04-09T06:48:25.807Z,85.76
2023-04-09T06:50:53.629Z,85.70
2023-04-09T06:53:21.528Z,85.65
2023-04-09T06:55:50.105Z,85.65
2023-04-09T06:58:18.280Z,85.55
2023-04-09T07:00:46.000Z,85.46
2023-04-09T07:03:14.896Z,85.31
2023-04-09T07:05:43.193Z,85.28
2023-04-09T07:08:11.857Z,85.25
2023-04-09T07:10:40.197Z,85.26
2023-04-09T07:13:07.993Z,85.19
2023-04-09T07:15:44.992Z,85.18
2023-04-09T07:18:16.240Z,85.16
2023-04-09T07:20:44.421Z,85.23
2023-04-09T07:23:12.793Z,85.15
2023-04-09T07:25:40.898Z,85.13
2023-04-09T07:28:08.670Z,85.05
2023-04-09T07:30:36.415Z,84.95
2023-04-09T07:33:06.947Z,84.86
2023-04-09T07:35:35.476Z,84.73
2023-04-09T07:38:03.814Z,84.53
2023-04-09T07:40:34.746Z,84.48
2023-04-09T07:43:04.555Z,84.35
2023-04-09T07:45:32.357Z,84.21
2023-04-09T07:48:00.979Z,84.19
2023-04-09T07:50:30.438Z,84.15
2023-04-09T07:52:58.731Z,84.14
2023-04-09T07:55:26.550Z,84.19
2023-04-09T07:57:54.818Z,84.30
2023-04-09T08:00:22.908Z,84.26
2023-04-09T08:02:51.148Z,84.25
2023-04-09T08:05:21.987Z,84.27
2023-04-09T08:07:53.687Z,84.13
2023-04-09T08:10:21.518Z,84.05
2023-04-09T08:12:50.380Z,83.80
2023-04-09T08:15:18.170Z,83.79
2023-04-09T08:17:45.950Z,83.71
2023-04-09T08:20:14.429Z,83.25
2023-04-09T08:22:42.867Z,83.47
2023-04-09T08:25:10.942Z,83.70
2023-04-09T08:27:39.810Z,83.71
2023-04-09T08:30:08.650Z,83.63
2023-04-09T08:32:37.029Z,83.05
2023-04-09T08:35:06.432Z,83.12
2023-04-09T08:37:35.411Z,83.31
2023-04-09T08:40:03.676Z,83.06
2023-04-09T08:42:34.160Z,82.90
2023-04-09T08:45:04.910Z,82.73
2023-04-09T08:47:35.320Z,82.68
2023-04-09T08:50:04.478Z,82.47
2023-04-09T08:52:34.226Z,82.29
2023-04-09T08:55:02.263Z,82.30
2023-04-09T08:57:30.146Z,82.18
2023-04-09T08:59:59.031Z,82.03
2023-04-09T09:02:27.464Z,81.84
2023-04-09T09:05:00.912Z,81.70
2023-04-09T09:07:32.100Z,81.95
2023-04-09T09:10:03.802Z,81.97
2023-04-09T09:12:40.601Z,81.89
2023-04-09T09:15:29.667Z,81.87
2023-04-09T09:18:00.130Z,81.87
2023-04-09T09:20:28.033Z,81.85
2023-04-09T09:22:57.192Z,81.80
2023-04-09T09:25:26.776Z,81.55
2023-04-09T09:27:54.872Z,81.63
2023-04-09T09:30:27.600Z,81.63
2023-04-09T09:33:10.718Z,81.52
2023-04-09T09:35:54.183Z,81.03
2023-04-09T09:38:22.176Z,81.26
2023-04-09T09:40:50.407Z,81.24
2023-04-09T09:43:18.818Z,80.74
2023-04-09T09:45:48.301Z,80.25
2023-04-09T09:48:16.534Z,80.00
2023-04-09T09:50:47.731Z,80.21
2023-04-09T09:53:23.166Z,80.54
2023-04-09T09:55:57.350Z,80.61
2023-04-09T09:58:32.089Z,80.57
2023-04-09T10:01:01.455Z,80.24
2023-04-09T10:03:32.240Z,79.98
2023-04-09T10:06:03.121Z,80.10
2023-04-09T10:08:34.181Z,80.02
2023-04-09T10:11:02.750Z,80.09
2023-04-09T10:13:45.430Z,80.07
2023-04-09T10:16:14.380Z,79.93
2023-04-09T10:18:43.751Z,79.75
2023-04-09T10:21:24.775Z,79.82
2023-04-09T10:23:53.785Z,79.59
2023-04-09T10:26:22.295Z,78.93
2023-04-09T10:29:08.862Z,78.64
2023-04-09T10:31:50.039Z,78.73
2023-04-09T10:34:20.532Z,78.13
2023-04-09T10:36:55.364Z,77.88
2023-04-09T10:39:28.625Z,76.45
2023-04-09T10:41:58.506Z,76.89
2023-04-09T10:44:27.845Z,76.84
2023-04-09T10:46:56.253Z,74.91
2023-04-09T10:49:27.079Z,75.88
2023-04-09T10:52:02.421Z,76.01
2023-04-09T10:54:33.927Z,76.03
2023-04-09T10:57:07.929Z,76.00
2023-04-09T10:59:39.153Z,75.28
2023-04-09T11:02:18.643Z,74.51
2023-04-09T11:05:06.435Z,74.21
2023-04-09T11:07:40.658Z,73.43
2023-04-09T11:10:09.096Z,72.80
2023-04-09T11:12:36.899Z,72.48
2023-04-09T11:15:05.836Z,72.39
2023-04-09T11:17:37.040Z,72.15
2023-04-09T11:20:06.052Z,71.09
2023-04-09T11:22:34.357Z,70.23
2023-04-09T11:25:03.140Z,70.35
2023-04-09T11:27:30.884Z,70.38
2023-04-09T11:30:01.769Z,70.32
2023-04-09T11:32:31.440Z,67.51
2023-04-09T11:34:59.839Z,67.99
2023-04-09T11:37:28.286Z,68.31
2023-04-09T11:39:57.973Z,68.90
2023-04-09T11:42:25.922Z,69.25
2023-04-09T11:44:54.260Z,68.80
2023-04-09T11:47:22.299Z,68.42
2023-04-09T11:49:50.708Z,67.35
2023-04-09T11:52:19.357Z,68.30
2023-04-09T11:54:50.417Z,67.52
2023-04-09T11:57:18.091Z,68.44
2023-04-09T11:59:46.371Z,68.41
2023-04-09T12:02:19.476Z,68.30
2023-04-09T12:04:51.233Z,68.59
2023-04-09T12:07:19.091Z,68.95
2023-04-09T12:09:48.775Z,69.40
2023-04-09T12:12:21.491Z,69.50
2023-04-09T12:14:51.996Z,69.83
2023-04-09T12:17:21.305Z,70.18
2023-04-09T12:19:49.356Z,70.44
2023-04-09T12:22:17.175Z,70.89
2023-04-09T12:24:45.044Z,71.08
2023-04-09T12:27:13.920Z,71.09
2023-04-09T12:29:41.679Z,71.05
2023-04-09T12:32:09.451Z,71.19
2023-04-09T12:34:37.549Z,70.54
2023-04-09T12:37:05.626Z,71.04
2023-04-09T12:39:34.407Z,70.90
2023-04-09T12:42:02.471Z,71.19
2023-04-09T12:44:33.210Z,71.08
2023-04-09T12:47:01.275Z,70.86
2023-04-09T12:49:29.577Z,71.12
2023-04-09T12:51:57.347Z,71.28
2023-04-09T12:54:25.168Z,71.13
2023-04-09T12:56:53.128Z,71.11
2023-04-09T12:59:21.337Z,71.27
2023-04-09T13:01:49.193Z,71.27
2023-04-09T13:04:17.369Z,70.85
2023-04-09T13:06:45.720Z,70.98
2023-04-09T13:09:13.434Z,70.74
2023-04-09T13:11:41.303Z,70.72
2023-04-09T13:14:13.554Z,69.91
2023-04-09T13:16:41.966Z,70.42
2023-04-09T13:19:10.382Z,69.88
2023-04-09T13:21:38.084Z,69.48
2023-04-09T13:24:06.922Z,70.27
2023-04-09T13:26:34.633Z,70.12
2023-04-09T13:29:03.527Z,69.77
2023-04-09T13:31:31.372Z,69.81
2023-04-09T13:33:59.267Z,69.56
2023-04-09T13:36:27.829Z,69.70
2023-04-09T13:38:56.444Z,69.17
2023-04-09T13:41:29.777Z,69.52
2023-04-09T13:43:59.887Z,69.68
2023-04-09T13:46:28.377Z,69.88
2023-04-09T13:48:56.145Z,69.52
2023-04-09T13:51:24.237Z,70.06
2023-04-09T13:53:52.825Z,70.22
2023-04-09T13:56:20.896Z,69.69
2023-04-09T13:58:49.110Z,69.91
2023-04-09T14:01:17.746Z,69.81
2023-04-09T14:03:45.691Z,69.84
2023-04-09T14:06:13.723Z,70.04
2023-04-09T14:08:42.290Z,69.72
2023-04-09T14:11:14.123Z,69.42
2023-04-09T14:13:41.869Z,68.92
2023-04-09T14:16:10.018Z,69.13
2023-04-09T14:18:39.436Z,69.04
2023-04-09T14:21:09.982Z,69.15
2023-04-09T14:23:41.501Z,68.96
2023-04-09T14:26:09.819Z,69.02
2023-04-09T14:28:38.066Z,68.95
2023-04-09T14:31:06.418Z,69.02
2023-04-09T14:33:34.228Z,69.08
2023-04-09T14:36:02.521Z,68.88
2023-04-09T14:38:30.307Z,69.16
2023-04-09T14:40:58.376Z,69.05
2023-04-09T14:43:26.320Z,68.89
2023-04-09T14:45:54.786Z,68.77
2023-04-09T14:48:23.100Z,68.90
2023-04-09T14:50:51.805Z,69.01
2023-04-09T14:53:19.562Z,68.39
2023-04-09T14:55:47.764Z,68.91
2023-04-09T14:58:15.523Z,68.87
2023-04-09T15:00:44.993Z,68.72
2023-04-09T15:03:13.396Z,68.81
2023-04-09T15:05:41.525Z,68.67
2023-04-09T15:08:09.328Z,68.61
2023-04-09T15:10:37.880Z,68.43
2023-04-09T15:13:05.970Z,68.75
2023-04-09T15:15:34.060Z,69.12
2023-04-09T15:18:05.914Z,69.29
2023-04-09T15:20:39.232Z,69.69
2023-04-09T15:23:07.134Z,69.92
2023-04-09T15:25:34.973Z,69.93
2023-04-09T15:28:03.591Z,70.26
2023-04-09T15:30:32.192Z,70.31
2023-04-09T15:33:00.615Z,70.41
2023-04-09T15:35:29.467Z,70.17
2023-04-09T15:37:57.743Z,70.38
2023-04-09T15:40:25.556Z,70.30
2023-04-09T15:42:53.314Z,70.30
2023-04-09T15:45:21.461Z,70.38
2023-04-09T15:47:49.268Z,70.42
2023-04-09T15:50:17.076Z,70.43
2023-04-09T15:52:45.286Z,70.69
2023-04-09T15:55:13.016Z,70.65
2023-04-09T15:57:40.868Z,70.34
2023-04-09T16:00:10.693Z,70.38
2023-04-09T16:02:39.112Z,70.58
2023-04-09T16:05:07.752Z,70.70
2023-04-09T16:07:35.951Z,70.82
2023-04-09T16:10:04.964Z,70.82
2023-04-09T16:12:32.851Z,70.95
2023-04-09T16:15:01.638Z,70.83
2023-04-09T16:17:34.523Z,71.00
2023-04-09T16:20:08.623Z,71.16
2023-04-09T16:22:37.083Z,71.14
2023-04-09T16:25:05.373Z,71.28
2023-04-09T16:27:33.773Z,71.49
2023-04-09T16:30:02.018Z,71.65
2023-04-09T16:32:29.894Z,71.88
2023-04-09T16:35:00.907Z,72.06
2023-04-09T16:37:29.423Z,72.27
2023-04-09T16:39:58.187Z,72.39
2023-04-09T16:42:27.640Z,72.48
2023-04-09T16:44:55.696Z,72.59
2023-04-09T16:47:23.536Z,72.85
2023-04-09T16:49:51.836Z,73.06
2023-04-09T16:52:20.042Z,73.19
2023-04-09T16:54:47.759Z,73.40
2023-04-09T16:57:16.679Z,73.60
2023-04-09T16:59:45.208Z,73.78
2023-04-09T17:02:12.959Z,74.05
2023-04-09T17:04:42.395Z,74.30
2023-04-09T17:07:10.637Z,74.57
2023-04-09T17:09:38.345Z,74.81
2023-04-09T17:12:06.405Z,75.09
2023-04-09T17:14:34.557Z,75.47
2023-04-09T17:17:02.728Z,75.80
2023-04-09T17:19:31.513Z,75.92
2023-04-09T17:22:00.234Z,76.12
2023-04-09T17:24:28.118Z,76.13
2023-04-09T17:26:56.790Z,76.29
2023-04-09T17:29:24.484Z,76.52
2023-04-09T17:31:53.310Z,76.68
2023-04-09T17:34:21.949Z,76.91
2023-04-09T17:36:56.405Z,77.11
2023-04-09T17:39:24.514Z,77.27
2023-04-09T17:41:53.664Z,77.38
2023-04-09T17:44:21.776Z,77.51
2023-04-09T17:46:49.625Z,77.79
2023-04-09T17:49:17.916Z,78.01
2023-04-09T17:51:46.264Z,78.35
2023-04-09T17:54:14.911Z,78.49
2023-04-09T17:56:42.748Z,78.68
2023-04-09T17:59:10.630Z,78.81
2023-04-09T18:01:38.452Z,78.95
2023-04-09T18:04:06.982Z,79.09
2023-04-09T18:06:35.360Z,79.29
2023-04-09T18:09:03.324Z,79.48
2023-04-09T18:11:31.353Z,79.72
2023-04-09T18:13:59.140Z,79.84
2023-04-09T18:16:28.432Z,80.06
2023-04-09T18:18:56.882Z,80.23
2023-04-09T18:21:25.106Z,80.43
2023-04-09T18:23:52.954Z,80.68
2023-04-09T18:26:20.780Z,80.81
2023-04-09T18:28:48.515Z,80.84
2023-04-09T18:31:16.513Z,80.86
2023-04-09T18:33:44.794Z,80.91
2023-04-09T18:36:13.429Z,81.03
2023-04-09T18:38:41.297Z,81.18
2023-04-09T18:41:11.054Z,81.24
2023-04-09T18:43:38.887Z,81.34
2023-04-09T18:46:06.818Z,81.37
2023-04-09T18:48:35.802Z,81.45
2023-04-09T18:51:04.560Z,81.59
2023-04-09T18:53:32.335Z,81.57
2023-04-09T18:58:46.581Z,81.95
2023-04-09T19:01:14.757Z,81.92
2023-04-09T19:03:43.260Z,81.95
2023-04-09T19:06:19.152Z,82.02
2023-04-09T19:08:48.348Z,82.21
2023-04-09T19:11:16.646Z,82.42
2023-04-09T19:13:44.596Z,82.44
2023-04-09T19:16:12.421Z,82.37
2023-04-09T19:18:40.193Z,82.37
2023-04-09T19:21:08.488Z,82.43
2023-04-09T19:23:36.828Z,82.55
2023-04-09T19:26:05.631Z,82.58
2023-04-09T19:28:33.612Z,82.62
2023-04-09T19:31:03.420Z,82.70
2023-04-09T19:33:31.921Z,82.80
2023-04-09T19:35:59.919Z,82.91
2023-04-09T19:38:28.382Z,82.91
2023-04-09T19:40:56.500Z,82.91
2023-04-09T19:43:24.556Z,83.08
2023-04-09T19:45:52.318Z,83.23
2023-04-09T19:48:20.136Z,83.23
2023-04-09T19:50:49.015Z,83.17
2023-04-09T19:53:18.583Z,83.16
2023-04-09T19:55:46.541Z,83.18
2023-04-09T19:58:14.344Z,83.21
2023-04-09T20:00:42.156Z,83.27
2023-04-09T20:03:10.652Z,83.28
2023-04-09T20:05:38.998Z,83.28
2023-04-09T20:08:12.211Z,83.34
2023-04-09T20:10:45.119Z,83.37
2023-04-09T20:13:13.665Z,83.43
2023-04-09T20:15:41.899Z,83.54
2023-04-09T20:18:10.525Z,83.64
2023-04-09T20:20:38.787Z,83.57
2023-04-09T20:23:06.523Z,83.72
2023-04-09T20:25:36.724Z,83.73
2023-04-09T20:28:04.891Z,83.74
2023-04-09T20:30:32.708Z,83.81
2023-04-09T20:33:01.462Z,83.95
2023-04-09T20:35:29.728Z,84.12
2023-04-09T20:37:57.423Z,84.26
2023-04-09T20:40:25.568Z,84.38
2023-04-09T20:42:53.350Z,84.55
2023-04-09T20:45:21.167Z,84.69
2023-04-09T20:47:53.338Z,84.78
2023-04-09T20:50:22.048Z,84.83
2023-04-09T20:52:49.898Z,84.76
2023-04-09T20:55:18.160Z,84.75
2023-04-09T20:57:45.963Z,84.77
2023-04-09T21:00:14.735Z,84.88
2023-04-09T21:02:43.199Z,84.93
2023-04-09T21:05:21.887Z,84.94
2023-04-09T21:07:52.784Z,84.97
2023-04-09T21:10:21.338Z,84.92
2023-04-09T21:12:49.687Z,84.93
2023-04-09T21:15:17.730Z,84.92
2023-04-09T21:17:45.662Z,84.94
2023-04-09T21:20:15.211Z,85.02
2023-04-09T21:22:42.983Z,85.08
2023-04-09T21:25:12.735Z,85.13
2023-04-09T21:27:42.948Z,85.14
2023-04-09T21:30:11.196Z,85.09
2023-04-09T21:32:38.954Z,85.07
2023-04-09T21:35:07.048Z,85.11
2023-04-09T21:37:37.575Z,85.14
2023-04-09T21:40:06.543Z,85.18
2023-04-09T21:42:34.720Z,85.16
2023-04-09T21:45:03.208Z,85.14
2023-04-09T21:47:32.059Z,85.17
2023-04-09T21:50:00.045Z,85.14
2023-04-09T21:52:28.324Z,85.12
2023-04-09T21:54:57.172Z,85.12
2023-04-09T21:57:24.919Z,85.08
2023-04-09T21:59:54.006Z,85.04
2023-04-09T22:02:22.284Z,84.96
2023-04-09T22:04:50.790Z,84.89
2023-04-09T22:07:18.688Z,84.88
2023-04-09T22:09:48.831Z,84.84
2023-04-09T22:12:16.621Z,84.86
2023-04-09T22:14:46.041Z,84.88
2023-04-09T22:17:13.849Z,84.85
2023-04-09T22:19:44.249Z,84.83
2023-04-09T22:22:13.641Z,84.82
2023-04-09T22:24:41.922Z,84.77
2023-04-09T22:27:13.084Z,84.72
2023-04-09T22:29:40.980Z,84.72
2023-04-09T22:32:09.483Z,84.72
2023-04-09T22:34:37.449Z,84.64
2023-04-09T22:37:05.185Z,84.65
2023-04-09T22:39:33.096Z,84.67
2023-04-09T22:42:01.875Z,84.69
2023-04-09T22:44:29.800Z,84.67
2023-04-09T22:46:57.717Z,84.66
2023-04-09T22:49:26.124Z,84.58
2023-04-09T22:51:54.890Z,84.55
2023-04-09T22:54:22.972Z,84.56
2023-04-09T22:56:50.894Z,84.56
2023-04-09T22:59:19.976Z,84.53
2023-04-09T23:01:49.960Z,84.52
2023-04-09T23:04:22.988Z,84.45
2023-04-09T23:06:51.267Z,84.51
2023-04-09T23:09:19.000Z,84.59
2023-04-09T23:11:46.857Z,84.57
2023-04-09T23:14:15.073Z,84.64
2023-04-09T23:16:43.767Z,84.71
2023-04-09T23:19:11.839Z,84.67
2023-04-09T23:21:39.587Z,84.85
2023-04-09T23:24:07.368Z,84.97
2023-04-09T23:26:35.038Z,85.02
2023-04-09T23:29:12.474Z,85.04
2023-04-09T23:31:41.152Z,85.02
2023-04-09T23:34:08.968Z,85.06
2023-04-09T23:36:36.681Z,84.94
2023-04-09T23:39:04.439Z,84.92
2023-04-09T23:41:32.591Z,84.83
2023-04-09T23:44:00.992Z,84.98
2023-04-09T23:46:28.783Z,84.92
2023-04-09T23:49:00.485Z,84.82
2023-04-09T23:51:28.352Z,84.62
2023-04-09T23:53:56.171Z,84.64
2023-04-09T23:56:25.230Z,84.45
2023-04-09T23:58:53.412Z,84.37
